sensor_id;sensor_type;location;lat;lon;timestamp;pressure;altitude;pressure_sealevel;temperature;humidity
72892;BME280;61032;50.782;6.818;2022-10-22T00:00:09;100004.03;;;15.00;86.70
72892;BME280;61032;50.782;6.818;2022-10-22T00:01:10;100012.72;;;14.99;86.90
72892;BME280;61032;50.782;6.818;2022-10-22T00:02:11;100011.09;;;14.94;86.97
72892;BME280;61032;50.782;6.818;2022-10-22T00:03:15;100013.88;;;14.98;87.23
72892;BME280;61032;50.782;6.818;2022-10-22T00:04:15;100012.72;;;14.99;87.24
72892;BME280;61032;50.782;6.818;2022-10-22T00:05:15;100017.84;;;14.97;87.35
72892;BME280;61032;50.782;6.818;2022-10-22T00:06:16;100026.56;;;14.99;87.43
72892;BME280;61032;50.782;6.818;2022-10-22T00:07:17;100014.81;;;15.05;87.39
72892;BME280;61032;50.782;6.818;2022-10-22T00:08:17;100018.00;;;15.07;87.43
72892;BME280;61032;50.782;6.818;2022-10-22T00:09:18;100025.94;;;15.09;87.29
72892;BME280;61032;50.782;6.818;2022-10-22T00:10:18;100027.50;;;15.06;87.36
72892;BME280;61032;50.782;6.818;2022-10-22T00:11:19;100026.75;;;15.09;87.42
72892;BME280;61032;50.782;6.818;2022-10-22T00:12:19;100019.66;;;15.12;87.57
72892;BME280;61032;50.782;6.818;2022-10-22T00:13:20;100013.75;;;15.13;87.47
72892;BME280;61032;50.782;6.818;2022-10-22T00:14:20;100022.06;;;15.13;87.12
72892;BME280;61032;50.782;6.818;2022-10-22T00:15:21;100023.66;;;15.15;87.17
72892;BME280;61032;50.782;6.818;2022-10-22T00:16:21;100016.59;;;15.17;87.49
72892;BME280;61032;50.782;6.818;2022-10-22T00:17:21;100012.69;;;15.22;87.08
72892;BME280;61032;50.782;6.818;2022-10-22T00:18:21;100018.22;;;15.22;86.81
72892;BME280;61032;50.782;6.818;2022-10-22T00:19:22;100019.81;;;15.23;86.84
72892;BME280;61032;50.782;6.818;2022-10-22T00:20:22;100018.22;;;15.22;87.11
72892;BME280;61032;50.782;6.818;2022-10-22T00:21:23;100015.88;;;15.24;87.15
72892;BME280;61032;50.782;6.818;2022-10-22T00:22:24;100017.47;;;15.25;87.07
72892;BME280;61032;50.782;6.818;2022-10-22T00:23:25;100015.88;;;15.24;87.34
72892;BME280;61032;50.782;6.818;2022-10-22T00:24:25;100015.94;;;15.27;87.15
72892;BME280;61032;50.782;6.818;2022-10-22T00:25:25;100010.81;;;15.29;86.78
72892;BME280;61032;50.782;6.818;2022-10-22T00:26:26;100008.84;;;15.30;86.80
72892;BME280;61032;50.782;6.818;2022-10-22T00:27:26;100011.19;;;15.28;87.04
72892;BME280;61032;50.782;6.818;2022-10-22T00:28:27;100010.50;;;15.34;86.95
72892;BME280;61032;50.782;6.818;2022-10-22T00:29:27;100003.00;;;15.38;86.75
72892;BME280;61032;50.782;6.818;2022-10-22T00:30:27;100006.19;;;15.37;86.78
72892;BME280;61032;50.782;6.818;2022-10-22T00:31:28;100000.22;;;15.35;86.68
72892;BME280;61032;50.782;6.818;2022-10-22T00:32:28;100007.34;;;15.36;86.84
72892;BME280;61032;50.782;6.818;2022-10-22T00:33:29;100005.78;;;15.38;86.68
72892;BME280;61032;50.782;6.818;2022-10-22T00:34:30;100001.84;;;15.39;86.56
72892;BME280;61032;50.782;6.818;2022-10-22T00:35:31;100008.56;;;15.38;86.42
72892;BME280;61032;50.782;6.818;2022-10-22T00:36:32;100007.78;;;15.38;86.72
72892;BME280;61032;50.782;6.818;2022-10-22T00:37:32;100013.72;;;15.40;86.27
72892;BME280;61032;50.782;6.818;2022-10-22T00:38:33;100004.66;;;15.43;86.40
72892;BME280;61032;50.782;6.818;2022-10-22T00:39:33;100009.47;;;15.46;86.02
72892;BME280;61032;50.782;6.818;2022-10-22T00:40:34;100001.09;;;15.42;86.04
72892;BME280;61032;50.782;6.818;2022-10-22T00:41:34;99995.94;;;15.41;86.30
72892;BME280;61032;50.782;6.818;2022-10-22T00:42:34;100005.84;;;15.42;86.24
72892;BME280;61032;50.782;6.818;2022-10-22T00:44:02;99999.50;;;15.41;86.07
72892;BME280;61032;50.782;6.818;2022-10-22T00:45:17;99991.63;;;15.43;86.40
72892;BME280;61032;50.782;6.818;2022-10-22T00:46:18;99998.69;;;15.41;86.15
72892;BME280;61032;50.782;6.818;2022-10-22T00:47:21;99999.13;;;15.43;86.47
72892;BME280;61032;50.782;6.818;2022-10-22T00:48:27;99993.97;;;15.41;86.38
72892;BME280;61032;50.782;6.818;2022-10-22T00:49:28;100002.31;;;15.45;86.38
72892;BME280;61032;50.782;6.818;2022-10-22T00:51:34;99999.59;;;15.48;86.18
72892;BME280;61032;50.782;6.818;2022-10-22T00:52:35;100001.56;;;15.48;86.11
72892;BME280;61032;50.782;6.818;2022-10-22T00:53:41;99999.97;;;15.47;86.16
72892;BME280;61032;50.782;6.818;2022-10-22T00:54:42;99996.41;;;15.46;86.28
72892;BME280;61032;50.782;6.818;2022-10-22T00:55:44;99996.47;;;15.50;86.03
72892;BME280;61032;50.782;6.818;2022-10-22T00:56:45;99999.22;;;15.50;85.90
72892;BME280;61032;50.782;6.818;2022-10-22T00:57:46;100000.34;;;15.45;86.16
72892;BME280;61032;50.782;6.818;2022-10-22T00:58:52;100002.69;;;15.43;86.72
72892;BME280;61032;50.782;6.818;2022-10-22T00:59:54;99999.56;;;15.45;86.33
72892;BME280;61032;50.782;6.818;2022-10-22T01:00:56;99994.81;;;15.45;86.43
72892;BME280;61032;50.782;6.818;2022-10-22T01:01:57;99994.06;;;15.48;86.26
72892;BME280;61032;50.782;6.818;2022-10-22T01:02:58;99993.25;;;15.48;86.45
72892;BME280;61032;50.782;6.818;2022-10-22T01:03:58;99987.31;;;15.46;86.43
72892;BME280;61032;50.782;6.818;2022-10-22T01:04:59;99994.91;;;15.53;86.22
72892;BME280;61032;50.782;6.818;2022-10-22T01:06:03;99993.69;;;15.50;86.18
72892;BME280;61032;50.782;6.818;2022-10-22T01:07:04;99993.25;;;15.48;86.34
72892;BME280;61032;50.782;6.818;2022-10-22T01:08:08;99993.31;;;15.52;86.40
72892;BME280;61032;50.782;6.818;2022-10-22T01:09:13;99990.19;;;15.53;86.44
72892;BME280;61032;50.782;6.818;2022-10-22T01:10:43;99995.72;;;15.53;86.08
72892;BME280;61032;50.782;6.818;2022-10-22T01:13:30;99998.84;;;15.52;86.23
72892;BME280;61032;50.782;6.818;2022-10-22T01:14:42;99993.31;;;15.52;86.13
72892;BME280;61032;50.782;6.818;2022-10-22T01:15:53;100000.09;;;15.54;86.30
72892;BME280;61032;50.782;6.818;2022-10-22T01:17:07;99999.75;;;15.56;86.30
72892;BME280;61032;50.782;6.818;2022-10-22T01:19:24;99990.25;;;15.57;85.97
72892;BME280;61032;50.782;6.818;2022-10-22T01:21:49;99997.00;;;15.59;85.96
72892;BME280;61032;50.782;6.818;2022-10-22T01:25:16;100002.16;;;15.61;85.97
72892;BME280;61032;50.782;6.818;2022-10-22T01:27:37;99999.66;;;15.52;86.16
72892;BME280;61032;50.782;6.818;2022-10-22T01:28:57;99997.31;;;15.54;86.33
72892;BME280;61032;50.782;6.818;2022-10-22T01:31:02;99994.63;;;15.58;86.38
72892;BME280;61032;50.782;6.818;2022-10-22T01:32:11;99984.72;;;15.57;86.32
72892;BME280;61032;50.782;6.818;2022-10-22T01:33:18;99987.81;;;15.55;86.14
72892;BME280;61032;50.782;6.818;2022-10-22T01:34:21;99991.34;;;15.52;86.44
72892;BME280;61032;50.782;6.818;2022-10-22T01:35:26;99984.25;;;15.55;86.47
72892;BME280;61032;50.782;6.818;2022-10-22T01:36:29;99984.59;;;15.50;86.44
72892;BME280;61032;50.782;6.818;2022-10-22T01:37:33;99981.06;;;15.53;86.57
72892;BME280;61032;50.782;6.818;2022-10-22T01:38:34;99980.63;;;15.51;86.58
72892;BME280;61032;50.782;6.818;2022-10-22T01:39:35;99972.75;;;15.53;86.27
72892;BME280;61032;50.782;6.818;2022-10-22T01:40:38;99971.94;;;15.52;86.46
72892;BME280;61032;50.782;6.818;2022-10-22T01:41:40;99979.09;;;15.53;86.30
72892;BME280;61032;50.782;6.818;2022-10-22T01:43:55;99983.84;;;15.53;86.34
72892;BME280;61032;50.782;6.818;2022-10-22T01:44:56;99986.59;;;15.53;86.51
72892;BME280;61032;50.782;6.818;2022-10-22T01:45:58;99989.81;;;15.55;86.45
72892;BME280;61032;50.782;6.818;2022-10-22T01:47:10;99986.69;;;15.56;86.50
72892;BME280;61032;50.782;6.818;2022-10-22T01:48:34;99985.81;;;15.52;86.28
72892;BME280;61032;50.782;6.818;2022-10-22T01:51:16;99992.56;;;15.55;86.45
72892;BME280;61032;50.782;6.818;2022-10-22T01:53:43;99990.19;;;15.53;86.53
72892;BME280;61032;50.782;6.818;2022-10-22T01:55:00;99992.09;;;15.49;86.92
72892;BME280;61032;50.782;6.818;2022-10-22T01:57:33;99990.13;;;15.50;86.87
72892;BME280;61032;50.782;6.818;2022-10-22T02:00:03;99990.50;;;15.48;86.65
72892;BME280;61032;50.782;6.818;2022-10-22T02:01:12;99982.19;;;15.48;86.87
72892;BME280;61032;50.782;6.818;2022-10-22T02:02:39;99990.50;;;15.48;86.76
72892;BME280;61032;50.782;6.818;2022-10-22T02:03:49;99996.84;;;15.48;86.90
72892;BME280;61032;50.782;6.818;2022-10-22T02:05:02;100003.91;;;15.46;86.85
72892;BME280;61032;50.782;6.818;2022-10-22T02:06:09;99993.25;;;15.48;87.09
72892;BME280;61032;50.782;6.818;2022-10-22T02:07:15;99997.63;;;15.49;86.99
72892;BME280;61032;50.782;6.818;2022-10-22T02:08:20;99988.56;;;15.52;87.03
72892;BME280;61032;50.782;6.818;2022-10-22T02:09:24;99986.97;;;15.51;86.97
72892;BME280;61032;50.782;6.818;2022-10-22T02:10:28;99986.19;;;15.51;86.61
72892;BME280;61032;50.782;6.818;2022-10-22T02:11:28;99988.16;;;15.50;86.73
72892;BME280;61032;50.782;6.818;2022-10-22T02:12:30;99993.69;;;15.50;86.86
72892;BME280;61032;50.782;6.818;2022-10-22T02:13:34;99992.09;;;15.49;86.84
72892;BME280;61032;50.782;6.818;2022-10-22T02:14:38;99988.53;;;15.48;86.62
72892;BME280;61032;50.782;6.818;2022-10-22T02:15:43;99993.25;;;15.48;86.99
72892;BME280;61032;50.782;6.818;2022-10-22T02:16:45;99988.16;;;15.50;86.55
72892;BME280;61032;50.782;6.818;2022-10-22T02:17:48;99990.19;;;15.53;86.66
72892;BME280;61032;50.782;6.818;2022-10-22T02:18:51;99987.41;;;15.53;86.63
72892;BME280;61032;50.782;6.818;2022-10-22T02:20:02;99988.66;;;15.56;86.79
72892;BME280;61032;50.782;6.818;2022-10-22T02:21:05;99982.25;;;15.52;86.82
72892;BME280;61032;50.782;6.818;2022-10-22T02:22:06;99988.94;;;15.51;86.97
72892;BME280;61032;50.782;6.818;2022-10-22T02:23:07;99987.78;;;15.52;86.80
72892;BME280;61032;50.782;6.818;2022-10-22T02:24:07;99990.19;;;15.53;86.81
72892;BME280;61032;50.782;6.818;2022-10-22T02:25:09;99983.84;;;15.53;86.50
72892;BME280;61032;50.782;6.818;2022-10-22T02:27:37;99984.22;;;15.51;86.67
72892;BME280;61032;50.782;6.818;2022-10-22T02:28:55;99986.19;;;15.51;86.82
72892;BME280;61032;50.782;6.818;2022-10-22T02:30:09;99994.88;;;15.49;86.88
72892;BME280;61032;50.782;6.818;2022-10-22T02:31:22;99998.44;;;15.50;86.95
72892;BME280;61032;50.782;6.818;2022-10-22T02:32:27;99994.88;;;15.49;86.92
72892;BME280;61032;50.782;6.818;2022-10-22T02:33:33;99992.09;;;15.49;86.98
72892;BME280;61032;50.782;6.818;2022-10-22T02:34:35;99995.66;;;15.50;87.00
72892;BME280;61032;50.782;6.818;2022-10-22T02:35:36;99996.88;;;15.52;86.56
72892;BME280;61032;50.782;6.818;2022-10-22T02:36:39;99990.59;;;15.55;86.85
72892;BME280;61032;50.782;6.818;2022-10-22T02:37:41;99989.00;;;15.54;86.36
72892;BME280;61032;50.782;6.818;2022-10-22T02:38:42;99989.47;;;15.56;86.59
72892;BME280;61032;50.782;6.818;2022-10-22T02:39:43;99998.19;;;15.58;86.47
72892;BME280;61032;50.782;6.818;2022-10-22T02:40:45;99990.25;;;15.57;86.26
72892;BME280;61032;50.782;6.818;2022-10-22T02:41:46;99997.00;;;15.59;86.16
72892;BME280;61032;50.782;6.818;2022-10-22T02:42:48;99998.59;;;15.60;85.96
72892;BME280;61032;50.782;6.818;2022-10-22T02:43:55;100001.34;;;15.60;85.98
72892;BME280;61032;50.782;6.818;2022-10-22T02:44:55;100002.13;;;15.57;86.24
72892;BME280;61032;50.782;6.818;2022-10-22T02:45:56;100003.75;;;15.58;86.16
72892;BME280;61032;50.782;6.818;2022-10-22T02:46:56;100002.13;;;15.57;85.96
72892;BME280;61032;50.782;6.818;2022-10-22T02:47:57;100004.91;;;15.57;85.93
72892;BME280;61032;50.782;6.818;2022-10-22T02:48:57;100010.44;;;15.57;85.93
72892;BME280;61032;50.782;6.818;2022-10-22T02:49:58;100010.81;;;15.56;85.70
72892;BME280;61032;50.782;6.818;2022-10-22T02:50:58;100007.22;;;15.55;86.02
72892;BME280;61032;50.782;6.818;2022-10-22T02:51:58;100007.59;;;15.54;85.90
72892;BME280;61032;50.782;6.818;2022-10-22T02:52:59;100006.78;;;15.53;85.94
72892;BME280;61032;50.782;6.818;2022-10-22T02:53:59;100002.06;;;15.54;86.04
72892;BME280;61032;50.782;6.818;2022-10-22T02:54:59;100014.75;;;15.55;85.90
72892;BME280;61032;50.782;6.818;2022-10-22T02:55:59;100001.25;;;15.53;86.12
72892;BME280;61032;50.782;6.818;2022-10-22T02:57:00;100003.22;;;15.53;85.96
72892;BME280;61032;50.782;6.818;2022-10-22T02:58:00;100002.44;;;15.52;85.79
72892;BME280;61032;50.782;6.818;2022-10-22T02:59:00;100002.81;;;15.51;85.86
72892;BME280;61032;50.782;6.818;2022-10-22T03:00:01;100010.69;;;15.48;85.95
72892;BME280;61032;50.782;6.818;2022-10-22T03:01:01;100011.06;;;15.47;85.71
72892;BME280;61032;50.782;6.818;2022-10-22T03:02:01;100011.00;;;15.43;85.72
72892;BME280;61032;50.782;6.818;2022-10-22T03:03:02;100014.09;;;15.38;86.17
72892;BME280;61032;50.782;6.818;2022-10-22T03:04:02;100012.91;;;15.36;86.62
72892;BME280;61032;50.782;6.818;2022-10-22T03:05:03;100019.25;;;15.36;86.69
72892;BME280;61032;50.782;6.818;2022-10-22T03:06:04;100012.09;;;15.35;86.63
72892;BME280;61032;50.782;6.818;2022-10-22T03:07:04;100008.91;;;15.33;86.71
72892;BME280;61032;50.782;6.818;2022-10-22T03:08:04;100009.66;;;15.30;86.87
72892;BME280;61032;50.782;6.818;2022-10-22T03:09:05;100010.03;;;15.29;86.60
72892;BME280;61032;50.782;6.818;2022-10-22T03:10:06;100011.94;;;15.25;86.92
72892;BME280;61032;50.782;6.818;2022-10-22T03:11:06;100007.56;;;15.24;86.87
72892;BME280;61032;50.782;6.818;2022-10-22T03:12:07;100019.81;;;15.23;86.91
72892;BME280;61032;50.782;6.818;2022-10-22T03:13:07;100015.44;;;15.22;87.33
72892;BME280;61032;50.782;6.818;2022-10-22T03:14:08;100014.28;;;15.23;87.29
72892;BME280;61032;50.782;6.818;2022-10-22T03:15:09;100015.44;;;15.22;87.39
72892;BME280;61032;50.782;6.818;2022-10-22T03:16:09;100031.63;;;15.20;86.85
72892;BME280;61032;50.782;6.818;2022-10-22T03:17:09;100017.34;;;15.18;87.40
72892;BME280;61032;50.782;6.818;2022-10-22T03:18:10;100021.31;;;15.17;87.55
72892;BME280;61032;50.782;6.818;2022-10-22T03:19:10;100018.56;;;15.17;87.17
72892;BME280;61032;50.782;6.818;2022-10-22T03:20:10;100018.13;;;15.15;87.60
72892;BME280;61032;50.782;6.818;2022-10-22T03:21:37;100024.41;;;15.11;87.36
72892;BME280;61032;50.782;6.818;2022-10-22T03:22:39;100025.94;;;15.09;87.42
72892;BME280;61032;50.782;6.818;2022-10-22T03:23:41;100027.50;;;15.06;87.62
72892;BME280;61032;50.782;6.818;2022-10-22T03:24:44;100030.25;;;15.06;87.36
72892;BME280;61032;50.782;6.818;2022-10-22T03:25:47;100025.53;;;15.07;87.50
72892;BME280;61032;50.782;6.818;2022-10-22T03:26:50;100018.75;;;15.04;87.19
72892;BME280;61032;50.782;6.818;2022-10-22T03:27:55;100017.16;;;15.03;87.26
72892;BME280;61032;50.782;6.818;2022-10-22T03:28:56;100018.69;;;15.01;87.40
72892;BME280;61032;50.782;6.818;2022-10-22T03:29:57;100021.03;;;14.99;87.48
72892;BME280;61032;50.782;6.818;2022-10-22T03:30:58;100015.88;;;14.97;87.39
72892;BME280;61032;50.782;6.818;2022-10-22T03:31:58;100013.06;;;14.94;87.59
72892;BME280;61032;50.782;6.818;2022-10-22T03:32:59;100015.03;;;14.93;87.70
72892;BME280;61032;50.782;6.818;2022-10-22T03:33:59;100019.78;;;14.93;88.08
72892;BME280;61032;50.782;6.818;2022-10-22T03:34:59;100022.03;;;14.87;87.91
72892;BME280;61032;50.782;6.818;2022-10-22T03:36:00;100019.22;;;14.84;87.96
72892;BME280;61032;50.782;6.818;2022-10-22T03:37:01;100021.47;;;14.78;88.52
72892;BME280;61032;50.782;6.818;2022-10-22T03:38:01;100021.13;;;14.79;88.28
72892;BME280;61032;50.782;6.818;2022-10-22T03:39:01;100017.97;;;14.81;88.50
72892;BME280;61032;50.782;6.818;2022-10-22T03:40:03;100023.41;;;14.74;88.41
72892;BME280;61032;50.782;6.818;2022-10-22T03:41:05;100011.47;;;14.70;88.80
72892;BME280;61032;50.782;6.818;2022-10-22T03:42:06;100020.59;;;14.70;88.82
72892;BME280;61032;50.782;6.818;2022-10-22T03:43:07;100024.53;;;14.69;88.56
72892;BME280;61032;50.782;6.818;2022-10-22T03:44:08;100021.38;;;14.71;88.73
72892;BME280;61032;50.782;6.818;2022-10-22T03:45:08;100026.91;;;14.71;88.79
72892;BME280;61032;50.782;6.818;2022-10-22T03:46:09;100023.72;;;14.69;88.87
72892;BME280;61032;50.782;6.818;2022-10-22T03:47:10;100020.53;;;14.67;88.53
72892;BME280;61032;50.782;6.818;2022-10-22T03:48:11;100024.88;;;14.68;88.83
72892;BME280;61032;50.782;6.818;2022-10-22T03:49:11;100030.06;;;14.69;88.57
72892;BME280;61032;50.782;6.818;2022-10-22T03:50:11;100029.63;;;14.67;88.62
72892;BME280;61032;50.782;6.818;2022-10-22T03:51:12;100032.38;;;14.67;88.87
72892;BME280;61032;50.782;6.818;2022-10-22T03:52:13;100029.19;;;14.65;89.13
72892;BME280;61032;50.782;6.818;2022-10-22T03:53:13;100027.22;;;14.66;88.82
72892;BME280;61032;50.782;6.818;2022-10-22T03:54:15;100025.63;;;14.65;88.75
72892;BME280;61032;50.782;6.818;2022-10-22T03:55:15;100026.06;;;14.67;88.85
72892;BME280;61032;50.782;6.818;2022-10-22T03:56:16;100030.78;;;14.66;88.73
72892;BME280;61032;50.782;6.818;2022-10-22T03:57:16;100034.66;;;14.62;88.75
72892;BME280;61032;50.782;6.818;2022-10-22T03:58:16;100025.13;;;14.59;88.67
72892;BME280;61032;50.782;6.818;2022-10-22T03:59:17;100029.84;;;14.59;88.67
72892;BME280;61032;50.782;6.818;2022-10-22T04:00:17;100031.03;;;14.58;89.01
72892;BME280;61032;50.782;6.818;2022-10-22T04:01:17;100040.09;;;14.55;89.06
72892;BME280;61032;50.782;6.818;2022-10-22T04:02:18;100044.41;;;14.56;89.38
72892;BME280;61032;50.782;6.818;2022-10-22T04:03:18;100041.72;;;14.59;89.35
72892;BME280;61032;50.782;6.818;2022-10-22T04:04:18;100049.22;;;14.59;89.16
72892;BME280;61032;50.782;6.818;2022-10-22T04:05:19;100046.47;;;14.59;89.38
72892;BME280;61032;50.782;6.818;2022-10-22T04:06:19;100052.00;;;14.59;88.97
72892;BME280;61032;50.782;6.818;2022-10-22T04:07:20;100046.81;;;14.57;89.01
72892;BME280;61032;50.782;6.818;2022-10-22T04:08:20;100046.38;;;14.55;88.93
72892;BME280;61032;50.782;6.818;2022-10-22T04:09:20;100056.69;;;14.55;89.16
72892;BME280;61032;50.782;6.818;2022-10-22T04:10:20;100042.41;;;14.53;89.01
72892;BME280;61032;50.782;6.818;2022-10-22T04:11:21;100047.50;;;14.51;89.17
72892;BME280;61032;50.782;6.818;2022-10-22T04:12:21;100047.94;;;14.53;89.40
72892;BME280;61032;50.782;6.818;2022-10-22T04:13:21;100051.09;;;14.51;89.16
72892;BME280;61032;50.782;6.818;2022-10-22T04:14:22;100060.97;;;14.52;89.07
72892;BME280;61032;50.782;6.818;2022-10-22T04:15:22;100057.41;;;14.52;88.95
72892;BME280;61032;50.782;6.818;2022-10-22T04:16:25;100059.75;;;14.50;88.84
72892;BME280;61032;50.782;6.818;2022-10-22T04:17:34;100062.81;;;14.44;89.00
72892;BME280;61032;50.782;6.818;2022-10-22T04:18:35;100061.56;;;14.42;89.16
72892;BME280;61032;50.782;6.818;2022-10-22T04:19:35;100066.75;;;14.43;89.04
72892;BME280;61032;50.782;6.818;2022-10-22T04:20:36;100066.75;;;14.43;88.99
72892;BME280;61032;50.782;6.818;2022-10-22T04:21:36;100065.50;;;14.41;89.05
72892;BME280;61032;50.782;6.818;2022-10-22T04:22:36;100064.78;;;14.44;89.01
72892;BME280;61032;50.782;6.818;2022-10-22T04:23:37;100067.09;;;14.42;88.71
72892;BME280;61032;50.782;6.818;2022-10-22T04:24:37;100067.47;;;14.40;88.95
72892;BME280;61032;50.782;6.818;2022-10-22T04:25:38;100063.78;;;14.36;88.63
72892;BME280;61032;50.782;6.818;2022-10-22T04:26:39;100069.28;;;14.33;88.66
72892;BME280;61032;50.782;6.818;2022-10-22T04:27:39;100075.22;;;14.35;88.76
72892;BME280;61032;50.782;6.818;2022-10-22T04:28:39;100071.38;;;14.39;88.73
72892;BME280;61032;50.782;6.818;2022-10-22T04:29:40;100068.16;;;14.37;88.75
72892;BME280;61032;50.782;6.818;2022-10-22T04:30:40;100065.75;;;14.36;88.62
72892;BME280;61032;50.782;6.818;2022-10-22T04:31:40;100075.22;;;14.35;88.51
72892;BME280;61032;50.782;6.818;2022-10-22T04:32:41;100083.13;;;14.33;88.58
72892;BME280;61032;50.782;6.818;2022-10-22T04:33:42;100082.31;;;14.32;88.37
72892;BME280;61032;50.782;6.818;2022-10-22T04:34:42;100079.91;;;14.31;88.51
72892;BME280;61032;50.782;6.818;2022-10-22T04:35:43;100077.50;;;14.29;88.34
72892;BME280;61032;50.782;6.818;2022-10-22T04:36:43;100081.44;;;14.28;88.46
72892;BME280;61032;50.782;6.818;2022-10-22T04:37:43;100081.44;;;14.28;88.25
72892;BME280;61032;50.782;6.818;2022-10-22T04:38:45;100085.38;;;14.27;88.37
72892;BME280;61032;50.782;6.818;2022-10-22T04:39:45;100083.69;;;14.23;88.18
72892;BME280;61032;50.782;6.818;2022-10-22T04:40:46;100083.63;;;14.19;89.04
72892;BME280;61032;50.782;6.818;2022-10-22T04:41:46;100088.78;;;14.21;88.65
72892;BME280;61032;50.782;6.818;2022-10-22T04:42:47;100080.47;;;14.21;88.42
72892;BME280;61032;50.782;6.818;2022-10-22T04:43:47;100088.41;;;14.22;88.43
72892;BME280;61032;50.782;6.818;2022-10-22T04:44:48;100089.22;;;14.23;88.40
72892;BME280;61032;50.782;6.818;2022-10-22T04:45:48;100086.00;;;14.21;87.74
72892;BME280;61032;50.782;6.818;2022-10-22T04:46:49;100080.47;;;14.21;87.95
72892;BME280;61032;50.782;6.818;2022-10-22T04:47:49;100088.41;;;14.22;87.82
72892;BME280;61032;50.782;6.818;2022-10-22T04:50:10;100086.75;;;14.18;87.72
72892;BME280;61032;50.782;6.818;2022-10-22T04:51:16;100088.72;;;14.17;87.69
72892;BME280;61032;50.782;6.818;2022-10-22T04:52:17;100086.66;;;14.14;87.40
72892;BME280;61032;50.782;6.818;2022-10-22T04:53:17;100086.66;;;14.14;87.47
72892;BME280;61032;50.782;6.818;2022-10-22T04:54:18;100081.94;;;14.15;87.47
72892;BME280;61032;50.782;6.818;2022-10-22T04:55:18;100081.88;;;14.11;87.31
72892;BME280;61032;50.782;6.818;2022-10-22T04:56:22;100080.28;;;14.10;86.91
72892;BME280;61032;50.782;6.818;2022-10-22T04:57:23;100084.94;;;14.06;87.14
72892;BME280;61032;50.782;6.818;2022-10-22T04:58:24;100087.69;;;14.06;87.00
72892;BME280;61032;50.782;6.818;2022-10-22T04:59:24;100080.22;;;14.06;86.90
72892;BME280;61032;50.782;6.818;2022-10-22T05:00:24;100082.91;;;14.03;86.95
72892;BME280;61032;50.782;6.818;2022-10-22T05:02:29;100075.69;;;13.98;86.71
72892;BME280;61032;50.782;6.818;2022-10-22T05:03:30;100080.06;;;13.99;87.21
72892;BME280;61032;50.782;6.818;2022-10-22T05:04:30;100080.78;;;13.96;86.85
72892;BME280;61032;50.782;6.818;2022-10-22T05:05:31;100080.41;;;13.98;86.90
72892;BME280;61032;50.782;6.818;2022-10-22T05:06:33;100085.59;;;13.99;86.85
72892;BME280;61032;50.782;6.818;2022-10-22T05:07:33;100078.91;;;14.00;86.68
72892;BME280;61032;50.782;6.818;2022-10-22T05:08:34;100088.34;;;13.99;86.78
72892;BME280;61032;50.782;6.818;2022-10-22T05:09:34;100080.06;;;13.99;86.69
72892;BME280;61032;50.782;6.818;2022-10-22T05:10:35;100079.25;;;13.99;86.42
72892;BME280;61032;50.782;6.818;2022-10-22T05:11:36;100082.75;;;13.96;86.55
72892;BME280;61032;50.782;6.818;2022-10-22T05:12:37;100082.69;;;13.92;86.65
72892;BME280;61032;50.782;6.818;2022-10-22T05:13:37;100082.59;;;13.89;86.58
72892;BME280;61032;50.782;6.818;2022-10-22T05:14:38;100088.06;;;13.85;86.78
72892;BME280;61032;50.782;6.818;2022-10-22T05:15:38;100085.66;;;13.84;86.89
72892;BME280;61032;50.782;6.818;2022-10-22T05:16:38;100083.78;;;13.88;86.86
72892;BME280;61032;50.782;6.818;2022-10-22T05:17:39;100084.22;;;13.90;86.66
72892;BME280;61032;50.782;6.818;2022-10-22T05:18:41;100077.94;;;13.93;86.98
72892;BME280;61032;50.782;6.818;2022-10-22T05:19:42;100090.91;;;13.89;86.88
72892;BME280;61032;50.782;6.818;2022-10-22T05:20:42;100081.88;;;13.92;86.82
72892;BME280;61032;50.782;6.818;2022-10-22T05:21:42;100081.13;;;13.95;86.71
72892;BME280;61032;50.782;6.818;2022-10-22T05:22:43;100086.31;;;13.96;86.37
72892;BME280;61032;50.782;6.818;2022-10-22T05:23:44;100091.09;;;13.99;86.19
72892;BME280;61032;50.782;6.818;2022-10-22T05:24:45;100093.06;;;13.99;85.95
72892;BME280;61032;50.782;6.818;2022-10-22T05:25:45;100095.13;;;14.02;85.93
72892;BME280;61032;50.782;6.818;2022-10-22T05:26:48;100103.13;;;14.07;85.54
72892;BME280;61032;50.782;6.818;2022-10-22T05:27:49;100103.56;;;14.09;85.19
72892;BME280;61032;50.782;6.818;2022-10-22T05:28:50;100102.41;;;14.10;84.65
72892;BME280;61032;50.782;6.818;2022-10-22T05:29:50;100110.69;;;14.10;84.71
72892;BME280;61032;50.782;6.818;2022-10-22T05:30:55;100105.97;;;14.10;84.32
72892;BME280;61032;50.782;6.818;2022-10-22T05:31:56;100104.44;;;14.13;84.32
72892;BME280;61032;50.782;6.818;2022-10-22T05:32:56;100108.78;;;14.14;84.34
72892;BME280;61032;50.782;6.818;2022-10-22T05:33:57;100111.13;;;14.12;84.40
72892;BME280;61032;50.782;6.818;2022-10-22T05:34:57;100119.44;;;14.12;84.69
72892;BME280;61032;50.782;6.818;2022-10-22T05:35:58;100113.47;;;14.10;84.39
72892;BME280;61032;50.782;6.818;2022-10-22T05:36:58;100117.81;;;14.11;84.20
72892;BME280;61032;50.782;6.818;2022-10-22T05:37:59;100128.88;;;14.11;84.17
72892;BME280;61032;50.782;6.818;2022-10-22T05:38:59;100119.84;;;14.14;83.96
72892;BME280;61032;50.782;6.818;2022-10-22T05:40:00;100119.44;;;14.12;83.74
72892;BME280;61032;50.782;6.818;2022-10-22T05:41:06;100121.44;;;14.15;83.81
72892;BME280;61032;50.782;6.818;2022-10-22T05:42:07;100126.97;;;14.15;83.80
72892;BME280;61032;50.782;6.818;2022-10-22T05:43:07;100132.94;;;14.17;83.71
72892;BME280;61032;50.782;6.818;2022-10-22T05:44:10;100132.59;;;14.19;83.58
72892;BME280;61032;50.782;6.818;2022-10-22T05:45:10;100131.78;;;14.18;83.77
72892;BME280;61032;50.782;6.818;2022-10-22T05:46:13;100129.00;;;14.18;83.25
72892;BME280;61032;50.782;6.818;2022-10-22T05:47:14;100143.63;;;14.19;83.57